Time;durP1;ratioP1;P1;durP2;ratioP2;P2;SDS_P1;SDS_P2;PMS_P1;PMS_P2;Temp;Humidity;BMP_temperature;BMP_pressure;BME280_temperature;BME280_humidity;BME280_pressure;Samples;Min_cycle;Max_cycle;Signal;HPM_P1;HPM_P2
2022/06/01 00:00:29;;;;;;;1.47;1.00;;;12.90;98.20;;;;;;5008044;28;20460;-76
2022/06/01 00:02:56;;;;;;;1.50;1.10;;;12.90;98.20;;;;;;4997749;28;20500;-75
2022/06/01 00:05:22;;;;;;;1.47;1.10;;;12.90;98.20;;;;;;5009323;28;20526;-76
2022/06/01 00:07:50;;;;;;;1.50;1.10;;;12.80;98.20;;;;;;5002473;28;20465;-76
2022/06/01 00:10:18;;;;;;;1.50;1.10;;;12.70;98.20;;;;;;5001219;28;20488;-76
2022/06/01 00:12:46;;;;;;;1.50;1.10;;;12.60;98.20;;;;;;5008123;28;20546;-75
2022/06/01 00:15:15;;;;;;;1.50;1.10;;;12.50;98.20;;;;;;5008776;28;20472;-75
2022/06/01 00:17:42;;;;;;;1.50;1.00;;;12.40;98.20;;;;;;5002712;28;20488;-75
2022/06/01 00:20:11;;;;;;;1.50;1.10;;;12.40;98.20;;;;;;5007925;28;20476;-75
2022/06/01 00:22:37;;;;;;;1.50;1.07;;;12.40;98.20;;;;;;5007247;28;21015;-75
2022/06/01 00:25:07;;;;;;;1.47;1.00;;;12.40;98.20;;;;;;5008434;28;20463;-75
2022/06/01 00:27:34;;;;;;;1.50;1.00;;;12.40;98.20;;;;;;5008813;28;20831;-75
2022/06/01 00:30:04;;;;;;;1.50;1.00;;;12.40;98.20;;;;;;5006884;28;20960;-76
2022/06/01 00:32:31;;;;;;;1.50;1.00;;;12.40;98.20;;;;;;5007424;28;20876;-75
2022/06/01 00:35:01;;;;;;;1.50;1.00;;;12.40;98.20;;;;;;5008898;28;20681;-75
2022/06/01 00:37:27;;;;;;;1.50;1.10;;;12.30;98.20;;;;;;4999219;28;20842;-75
2022/06/01 00:39:54;;;;;;;1.50;1.10;;;12.30;98.20;;;;;;5002952;28;20859;-75
2022/06/01 00:42:23;;;;;;;1.50;1.10;;;12.40;98.20;;;;;;5007033;28;20992;-75
2022/06/01 00:44:51;;;;;;;1.50;1.10;;;12.40;98.20;;;;;;5014876;28;20500;-75
2022/06/01 00:47:21;;;;;;;1.50;1.10;;;12.30;98.20;;;;;;5001644;28;20472;-75
2022/06/01 00:49:52;;;;;;;1.50;1.10;;;12.30;98.20;;;;;;5008900;28;20470;-75
2022/06/01 00:52:35;;;;;;;1.50;1.10;;;12.30;98.20;;;;;;5002481;28;20686;-75
2022/06/01 00:55:03;;;;;;;1.50;1.10;;;12.30;98.20;;;;;;5015116;28;20472;-75
2022/06/01 00:57:31;;;;;;;1.50;1.10;;;12.20;98.20;;;;;;5010370;28;20471;-75
2022/06/01 01:00:00;;;;;;;1.50;1.10;;;12.30;98.20;;;;;;5014065;28;20959;-75
2022/06/01 01:02:29;;;;;;;1.50;1.10;;;12.20;98.20;;;;;;5007326;28;20476;-75
2022/06/01 01:04:57;;;;;;;1.47;1.00;;;12.20;98.20;;;;;;5014203;28;20746;-75
2022/06/01 01:07:27;;;;;;;1.50;1.10;;;12.20;98.20;;;;;;5010342;28;20471;-75
2022/06/01 01:09:54;;;;;;;1.50;1.10;;;12.20;98.20;;;;;;5000735;28;20460;-77
2022/06/01 01:12:20;;;;;;;1.50;1.10;;;12.20;98.20;;;;;;4998004;28;20487;-75
2022/06/01 01:14:48;;;;;;;1.50;1.00;;;12.20;98.20;;;;;;5014515;28;20868;-75
2022/06/01 01:17:15;;;;;;;1.50;1.10;;;12.20;98.20;;;;;;5013767;28;20956;-75
2022/06/01 01:19:47;;;;;;;1.50;1.10;;;12.20;98.20;;;;;;4998313;28;20463;-75
2022/06/01 01:22:26;;;;;;;1.47;1.10;;;12.10;98.20;;;;;;5002639;28;20563;-75
2022/06/01 01:25:17;;;;;;;1.50;1.10;;;12.10;98.20;;;;;;5004663;28;20475;-76
2022/06/01 01:27:43;;;;;;;1.50;1.10;;;12.00;98.20;;;;;;4974906;28;20476;-76
2022/06/01 01:30:48;;;;;;;1.50;1.10;;;12.00;98.20;;;;;;5003063;28;20471;-75
2022/06/01 01:33:17;;;;;;;1.50;1.10;;;11.90;98.20;;;;;;5006145;28;20550;-75
2022/06/01 01:35:47;;;;;;;1.50;1.10;;;11.80;98.20;;;;;;5014700;28;20456;-75
2022/06/01 01:38:29;;;;;;;1.50;1.00;;;11.70;98.20;;;;;;5008529;28;20479;-75
2022/06/01 01:41:04;;;;;;;1.50;1.10;;;11.60;98.20;;;;;;4998152;28;20470;-76
2022/06/01 01:43:33;;;;;;;1.50;1.10;;;11.50;98.20;;;;;;5013458;28;20490;-75
2022/06/01 01:46:00;;;;;;;1.50;1.10;;;11.50;98.20;;;;;;5014242;28;20909;-75
2022/06/01 01:48:26;;;;;;;1.50;1.10;;;11.60;98.20;;;;;;5007633;28;20464;-75
2022/06/01 01:50:54;;;;;;;1.50;1.17;;;11.60;98.20;;;;;;4999509;28;20491;-75
2022/06/01 01:53:21;;;;;;;1.47;1.07;;;11.60;98.20;;;;;;5009903;28;20516;-75
2022/06/01 01:55:58;;;;;;;1.50;1.20;;;11.60;98.20;;;;;;5004505;28;20830;-75
2022/06/01 01:58:42;;;;;;;1.50;1.10;;;11.50;98.20;;;;;;5009280;28;20463;-75
2022/06/01 02:01:15;;;;;;;1.50;1.10;;;11.50;98.20;;;;;;5009105;28;21028;-74
2022/06/01 02:03:47;;;;;;;1.50;1.20;;;11.50;98.20;;;;;;5007375;28;21006;-74
2022/06/01 02:06:21;;;;;;;1.50;1.17;;;11.40;98.20;;;;;;5010360;28;20471;-75
2022/06/01 02:08:53;;;;;;;1.50;1.17;;;11.40;98.20;;;;;;4997695;28;20475;-75
2022/06/01 02:14:15;;;;;;;1.50;1.10;;;11.30;98.20;;;;;;5007017;28;20459;-75
2022/06/01 02:16:50;;;;;;;1.50;1.10;;;11.30;98.20;;;;;;5009567;28;20459;-75
2022/06/01 02:19:23;;;;;;;1.50;1.13;;;11.30;98.20;;;;;;4996489;28;20563;-75
2022/06/01 02:21:51;;;;;;;1.50;1.10;;;11.20;98.20;;;;;;4995911;28;20483;-76
2022/06/01 02:24:18;;;;;;;1.50;1.10;;;11.20;98.20;;;;;;5011133;28;20495;-75
2022/06/01 02:26:49;;;;;;;1.50;1.10;;;11.10;98.20;;;;;;4999522;28;20563;-74
2022/06/01 02:29:21;;;;;;;1.50;1.10;;;11.10;98.20;;;;;;5010440;28;20460;-75
2022/06/01 02:31:50;;;;;;;1.50;1.10;;;11.10;98.20;;;;;;5008719;28;20476;-75
2022/06/01 02:34:17;;;;;;;1.50;1.10;;;11.10;98.20;;;;;;5010426;28;20524;-75
2022/06/01 02:36:45;;;;;;;1.50;1.20;;;11.10;98.20;;;;;;5010296;28;20543;-75
2022/06/01 02:39:16;;;;;;;1.50;1.10;;;11.10;98.20;;;;;;5008963;28;20552;-74
2022/06/01 02:44:28;;;;;;;1.50;1.17;;;11.00;98.20;;;;;;5011003;28;20489;-75
2022/06/01 02:46:55;;;;;;;1.50;1.10;;;11.00;98.20;;;;;;5009843;28;20560;-74
2022/06/01 02:49:22;;;;;;;1.50;1.20;;;11.00;98.20;;;;;;5008078;28;20457;-75
2022/06/01 02:51:49;;;;;;;1.50;1.10;;;10.90;98.20;;;;;;5007429;28;20488;-74
2022/06/01 02:54:15;;;;;;;1.50;1.20;;;10.90;98.20;;;;;;5010431;28;20491;-74
2022/06/01 02:56:43;;;;;;;1.50;1.10;;;10.90;98.20;;;;;;5004205;28;20472;-74
2022/06/01 02:59:10;;;;;;;1.50;1.10;;;10.80;98.20;;;;;;4999048;28;20469;-74
2022/06/01 03:01:38;;;;;;;1.50;1.10;;;10.80;98.20;;;;;;5008430;28;20479;-75
2022/06/01 03:04:06;;;;;;;1.50;1.10;;;10.80;98.20;;;;;;5010554;28;20495;-74
2022/06/01 03:06:33;;;;;;;1.50;1.10;;;10.80;98.20;;;;;;4999203;28;20479;-74
2022/06/01 03:09:00;;;;;;;1.50;1.20;;;10.70;98.20;;;;;;5014527;28;20956;-75
2022/06/01 03:11:26;;;;;;;1.50;1.10;;;10.70;98.20;;;;;;5004915;28;20523;-74
2022/06/01 03:13:53;;;;;;;1.50;1.20;;;10.70;98.20;;;;;;5010501;28;20919;-75
2022/06/01 03:16:20;;;;;;;1.50;1.10;;;10.70;98.20;;;;;;5005404;28;20893;-74
2022/06/01 03:18:50;;;;;;;1.50;1.10;;;10.70;98.20;;;;;;5005311;28;20849;-74
2022/06/01 03:21:16;;;;;;;1.50;1.10;;;10.70;98.20;;;;;;4997977;28;20858;-74
2022/06/01 03:23:43;;;;;;;1.50;1.20;;;10.60;98.20;;;;;;5009044;28;20495;-74
2022/06/01 03:26:10;;;;;;;1.50;1.20;;;10.60;98.20;;;;;;5007390;28;20476;-74
2022/06/01 03:28:36;;;;;;;1.50;1.10;;;10.60;98.20;;;;;;5004650;28;20884;-74
2022/06/01 03:31:05;;;;;;;1.50;1.10;;;10.60;98.20;;;;;;5007219;28;20471;-75
2022/06/01 03:33:32;;;;;;;1.50;1.10;;;10.60;98.20;;;;;;5003123;28;20546;-75
2022/06/01 03:36:00;;;;;;;1.47;1.10;;;10.60;98.20;;;;;;5008600;28;20972;-75
2022/06/01 03:38:27;;;;;;;1.50;1.10;;;10.60;98.20;;;;;;5000705;28;20465;-74
2022/06/01 03:40:54;;;;;;;1.50;1.13;;;10.60;98.20;;;;;;4998314;28;20460;-75
2022/06/01 03:43:20;;;;;;;1.50;1.30;;;10.60;98.20;;;;;;5005547;28;20491;-75
2022/06/01 03:45:55;;;;;;;1.50;1.10;;;10.60;98.20;;;;;;5003054;28;20491;-75
2022/06/01 03:48:23;;;;;;;1.50;1.20;;;10.60;98.20;;;;;;5003576;28;20485;-75
2022/06/01 03:50:50;;;;;;;1.50;1.20;;;10.60;98.20;;;;;;5000676;28;20507;-75
2022/06/01 03:53:19;;;;;;;1.50;1.20;;;10.60;98.20;;;;;;5002597;28;20963;-74
2022/06/01 03:55:46;;;;;;;1.50;1.20;;;10.60;98.20;;;;;;5008534;28;20973;-74
2022/06/01 03:58:15;;;;;;;1.50;1.10;;;10.60;98.20;;;;;;5001821;28;20469;-75
2022/06/01 04:00:42;;;;;;;1.50;1.20;;;10.60;98.20;;;;;;5002173;28;20491;-74
2022/06/01 04:03:09;;;;;;;1.50;1.10;;;10.60;98.20;;;;;;4997429;28;20974;-75
2022/06/01 04:05:36;;;;;;;2.23;1.70;;;10.60;98.20;;;;;;5008620;28;20464;-75
2022/06/01 04:08:03;;;;;;;1.50;1.10;;;10.60;98.20;;;;;;4997486;28;20837;-75
2022/06/01 04:10:31;;;;;;;1.50;1.00;;;10.60;98.20;;;;;;4994452;28;20465;-75
2022/06/01 04:12:58;;;;;;;1.50;1.10;;;10.60;98.20;;;;;;5006482;28;20519;-75
2022/06/01 04:15:24;;;;;;;1.50;1.10;;;10.60;98.20;;;;;;5008399;28;20472;-75
2022/06/01 04:17:51;;;;;;;1.50;1.10;;;10.70;98.20;;;;;;5003488;28;20571;-75
2022/06/01 04:20:18;;;;;;;1.50;1.10;;;10.70;98.20;;;;;;5008101;28;20460;-75
2022/06/01 04:22:46;;;;;;;1.43;1.00;;;10.70;98.20;;;;;;4995280;28;20484;-74
2022/06/01 04:25:16;;;;;;;1.50;1.17;;;10.70;98.20;;;;;;5008363;28;20463;-75
2022/06/01 04:27:44;;;;;;;1.47;1.10;;;10.70;98.20;;;;;;5007330;28;20913;-75
2022/06/01 04:30:15;;;;;;;1.50;1.20;;;10.80;98.20;;;;;;5006897;28;20464;-75
2022/06/01 04:32:44;;;;;;;1.50;1.20;;;10.80;98.20;;;;;;5006609;28;20887;-75
2022/06/01 04:35:11;;;;;;;1.50;1.20;;;10.90;98.20;;;;;;5008021;28;20562;-74
2022/06/01 04:37:38;;;;;;;1.47;1.10;;;10.90;98.20;;;;;;5000707;28;20512;-75
2022/06/01 04:40:06;;;;;;;1.50;1.10;;;11.00;98.20;;;;;;4994476;28;20469;-74
2022/06/01 04:42:34;;;;;;;1.50;1.10;;;11.00;98.20;;;;;;4995895;28;20488;-75
2022/06/01 04:45:03;;;;;;;1.50;1.20;;;11.10;98.20;;;;;;5008195;28;20999;-75
2022/06/01 04:47:30;;;;;;;1.50;1.10;;;11.20;98.20;;;;;;4995389;28;20494;-75
2022/06/01 04:49:57;;;;;;;1.50;1.10;;;11.40;98.20;;;;;;5007466;28;20587;-75
2022/06/01 04:52:24;;;;;;;1.50;1.10;;;11.60;98.20;;;;;;4997239;28;20560;-76
2022/06/01 04:54:51;;;;;;;1.50;1.13;;;11.80;98.20;;;;;;5007550;28;20479;-76
2022/06/01 04:57:18;;;;;;;1.50;1.10;;;12.10;98.20;;;;;;5004805;28;20467;-76
2022/06/01 04:59:44;;;;;;;1.50;1.10;;;12.30;98.20;;;;;;5007174;28;20471;-76
2022/06/01 05:02:12;;;;;;;1.50;1.17;;;12.50;98.20;;;;;;5004581;28;20456;-75
2022/06/01 05:04:40;;;;;;;1.50;1.00;;;12.70;98.20;;;;;;5003638;28;20471;-75
2022/06/01 05:07:07;;;;;;;1.50;1.20;;;12.80;98.20;;;;;;5005827;28;20460;-75
2022/06/01 05:09:34;;;;;;;1.50;1.10;;;13.00;98.20;;;;;;4994059;28;20831;-76
2022/06/01 05:12:02;;;;;;;1.50;1.00;;;13.20;98.20;;;;;;5001895;28;20479;-76
2022/06/01 05:14:29;;;;;;;1.50;1.10;;;13.40;98.20;;;;;;4997934;28;20497;-76
2022/06/01 05:16:58;;;;;;;1.50;1.00;;;13.60;98.20;;;;;;5007282;28;20840;-76
2022/06/01 05:19:26;;;;;;;1.50;1.10;;;13.90;98.20;;;;;;5003481;28;20464;-76
2022/06/01 05:21:53;;;;;;;1.50;1.00;;;14.10;98.20;;;;;;5006332;28;20467;-76
2022/06/01 05:24:20;;;;;;;1.50;1.00;;;14.30;98.10;;;;;;5007659;28;20545;-75
2022/06/01 05:26:47;;;;;;;1.50;1.00;;;14.50;98.00;;;;;;5003125;28;20484;-75
2022/06/01 05:29:14;;;;;;;1.50;1.00;;;14.60;97.20;;;;;;5006536;28;20464;-76
2022/06/01 05:31:41;;;;;;;1.50;1.00;;;14.80;96.50;;;;;;4998760;28;20486;-77
2022/06/01 05:34:07;;;;;;;1.50;1.10;;;15.00;96.60;;;;;;5012358;28;21081;-77
2022/06/01 05:36:36;;;;;;;1.50;1.00;;;15.10;95.30;;;;;;5009843;28;20464;-77
2022/06/01 05:39:03;;;;;;;1.50;1.00;;;15.20;94.80;;;;;;4996347;28;20997;-77
2022/06/01 05:41:30;;;;;;;1.50;1.00;;;15.30;95.10;;;;;;5004117;28;20464;-77
2022/06/01 05:43:57;;;;;;;1.50;1.00;;;15.40;94.00;;;;;;5004175;28;20484;-77
2022/06/01 05:46:24;;;;;;;1.50;1.00;;;15.50;93.80;;;;;;5010532;28;20477;-78
2022/06/01 05:48:51;;;;;;;1.50;1.10;;;15.60;94.00;;;;;;5010306;28;20796;-77
2022/06/01 05:51:18;;;;;;;1.50;1.00;;;15.60;93.40;;;;;;5009384;28;20955;-77
2022/06/01 05:53:46;;;;;;;1.50;0.90;;;15.70;93.50;;;;;;5008876;28;20503;-78
2022/06/01 05:56:13;;;;;;;1.50;0.90;;;15.80;93.60;;;;;;4991950;28;20560;-77
2022/06/01 05:58:39;;;;;;;1.50;1.00;;;16.00;93.10;;;;;;5020920;28;20955;-77
2022/06/01 06:01:12;;;;;;;1.50;1.00;;;16.20;92.50;;;;;;5007628;28;20472;-77
2022/06/01 06:03:39;;;;;;;1.50;1.00;;;16.40;91.20;;;;;;5007105;28;20479;-76
2022/06/01 06:06:18;;;;;;;1.50;1.00;;;16.50;90.50;;;;;;5011206;28;20471;-77
2022/06/01 06:08:53;;;;;;;1.50;0.90;;;16.70;90.90;;;;;;4996197;28;20515;-78
2022/06/01 06:11:26;;;;;;;1.50;0.90;;;16.90;89.90;;;;;;5001561;28;20539;-77
2022/06/01 06:13:53;;;;;;;1.47;0.90;;;17.00;89.40;;;;;;5011382;28;20900;-79
2022/06/01 06:16:21;;;;;;;1.50;0.90;;;17.20;88.40;;;;;;5007573;28;20469;-78
2022/06/01 06:18:48;;;;;;;1.50;0.90;;;17.30;89.20;;;;;;5010459;28;20467;-78
2022/06/01 06:21:15;;;;;;;1.50;0.90;;;17.70;88.60;;;;;;5007746;28;20460;-78
2022/06/01 06:23:42;;;;;;;1.50;0.90;;;18.00;87.80;;;;;;5009854;28;20762;-78
2022/06/01 06:26:10;;;;;;;1.50;0.90;;;18.20;87.20;;;;;;5011126;28;20468;-79
2022/06/01 06:28:38;;;;;;;1.40;0.90;;;18.40;85.90;;;;;;5011329;28;20460;-79
2022/06/01 06:31:05;;;;;;;2.03;1.73;;;18.50;86.00;;;;;;5009219;28;20902;-78
2022/06/01 06:33:32;;;;;;;1.40;0.90;;;18.70;85.30;;;;;;5011816;28;21138;-78
2022/06/01 06:36:03;;;;;;;1.50;0.90;;;18.80;84.50;;;;;;5010817;28;20850;-78
2022/06/01 06:38:32;;;;;;;1.40;0.90;;;18.90;84.10;;;;;;5003835;28;20468;-76
2022/06/01 06:41:00;;;;;;;1.50;1.10;;;19.00;83.40;;;;;;5006024;28;20647;-79
2022/06/01 06:43:31;;;;;;;1.50;0.90;;;19.10;83.60;;;;;;5003405;28;20473;-78
2022/06/01 06:45:59;;;;;;;1.50;0.90;;;19.30;83.30;;;;;;5005172;28;20464;-78
2022/06/01 06:48:26;;;;;;;1.73;1.20;;;19.50;82.60;;;;;;5012041;28;20471;-78
2022/06/01 06:50:53;;;;;;;1.50;0.90;;;19.60;81.50;;;;;;5006054;28;20752;-78
2022/06/01 06:53:21;;;;;;;1.40;0.90;;;19.60;81.00;;;;;;5011723;28;20500;-79
2022/06/01 06:55:48;;;;;;;1.43;0.90;;;19.50;81.00;;;;;;5008635;28;20467;-77
2022/06/01 06:58:15;;;;;;;1.47;1.00;;;19.30;81.80;;;;;;5006803;28;20471;-78
2022/06/01 07:00:44;;;;;;;1.47;0.90;;;19.30;80.80;;;;;;5008208;28;20565;-78
2022/06/01 07:03:11;;;;;;;1.70;1.30;;;19.10;81.60;;;;;;5008161;28;20499;-77
2022/06/01 07:08:22;;;;;;;1.50;0.90;;;18.90;81.60;;;;;;5003763;28;20507;-78
2022/06/01 07:10:49;;;;;;;1.40;0.90;;;18.70;81.70;;;;;;4999924;28;20846;-77
2022/06/01 07:13:16;;;;;;;1.50;0.90;;;18.40;82.60;;;;;;5001278;28;20738;-77
2022/06/01 07:15:44;;;;;;;1.50;0.90;;;18.40;83.50;;;;;;5010256;28;20928;-77
2022/06/01 07:18:11;;;;;;;1.40;0.90;;;18.30;83.60;;;;;;5003292;28;20902;-77
2022/06/01 07:20:37;;;;;;;1.47;0.90;;;18.20;83.30;;;;;;5008350;28;20547;-78
2022/06/01 07:23:04;;;;;;;1.50;0.90;;;18.20;83.70;;;;;;4996262;28;21007;-76
2022/06/01 07:25:31;;;;;;;1.47;0.90;;;18.10;83.90;;;;;;5009453;28;20704;-77
2022/06/01 07:27:58;;;;;;;1.50;0.90;;;18.10;84.30;;;;;;5006323;28;20463;-76
2022/06/01 07:30:26;;;;;;;1.43;0.90;;;18.20;84.50;;;;;;5009663;28;20852;-77
2022/06/01 07:32:55;;;;;;;1.43;0.90;;;18.30;84.20;;;;;;5004963;28;20481;-76
2022/06/01 07:35:21;;;;;;;1.47;0.90;;;18.50;84.70;;;;;;5030341;23;20565;-77
2022/06/01 07:43:20;;;;;;;1.50;0.90;;;19.10;82.40;;;;;;5023018;28;20947;-78
2022/06/01 07:45:48;;;;;;;1.50;0.90;;;19.40;82.40;;;;;;5028643;28;20506;-78
2022/06/01 07:48:17;;;;;;;1.47;0.90;;;19.50;81.10;;;;;;5028712;28;20459;-78
2022/06/01 07:50:45;;;;;;;1.47;0.90;;;19.60;81.40;;;;;;5025469;28;20463;-78
2022/06/01 07:53:12;;;;;;;1.47;0.90;;;19.60;80.20;;;;;;5021060;28;20491;-78
2022/06/01 07:55:41;;;;;;;1.43;0.90;;;19.60;80.50;;;;;;5027989;28;20483;-78
2022/06/01 07:58:08;;;;;;;1.50;0.90;;;19.80;80.00;;;;;;5023559;28;20487;-78
2022/06/01 08:00:36;;;;;;;1.50;0.90;;;19.90;79.80;;;;;;5027473;28;20896;-78
2022/06/01 08:03:03;;;;;;;1.50;0.90;;;20.10;78.70;;;;;;4996365;28;20484;-79
2022/06/01 08:05:33;;;;;;;1.47;0.90;;;20.10;77.80;;;;;;5028626;28;21036;-79
2022/06/01 08:08:00;;;;;;;1.50;0.87;;;20.00;77.70;;;;;;4995081;28;20534;-78
2022/06/01 08:10:26;;;;;;;1.47;0.90;;;19.90;78.70;;;;;;5024513;28;20472;-77
2022/06/01 08:13:07;;;;;;;1.47;0.90;;;19.90;79.20;;;;;;5026965;28;20483;-78
2022/06/01 08:15:36;;;;;;;1.43;0.90;;;19.90;79.50;;;;;;5028308;28;20578;-79
2022/06/01 08:18:04;;;;;;;1.40;0.90;;;20.00;80.30;;;;;;5026592;28;20462;-78
2022/06/01 08:20:32;;;;;;;1.47;0.90;;;20.20;79.60;;;;;;5025925;28;20478;-78
2022/06/01 08:23:00;;;;;;;1.40;0.90;;;20.50;78.20;;;;;;5028464;28;20487;-78
2022/06/01 08:25:29;;;;;;;1.43;0.90;;;20.70;77.20;;;;;;5025056;28;20983;-78
2022/06/01 08:27:55;;;;;;;1.50;0.90;;;20.70;76.80;;;;;;5027714;28;20970;-78
2022/06/01 08:30:25;;;;;;;1.50;0.90;;;20.80;76.90;;;;;;5021681;28;20470;-78
2022/06/01 08:32:53;;;;;;;1.40;0.90;;;20.80;76.40;;;;;;5026103;28;20521;-78
2022/06/01 08:35:24;;;;;;;1.43;0.90;;;20.80;76.50;;;;;;5028813;28;20590;-77
2022/06/01 08:37:52;;;;;;;1.47;0.90;;;20.90;76.20;;;;;;5030273;28;20464;-77
2022/06/01 08:40:22;;;;;;;1.50;0.90;;;21.00;76.40;;;;;;5025155;28;20543;-79
2022/06/01 08:42:53;;;;;;;1.47;0.90;;;21.00;76.30;;;;;;5023619;28;20962;-77
2022/06/01 08:45:22;;;;;;;1.40;0.90;;;21.00;76.30;;;;;;5029085;28;20491;-79
2022/06/01 08:47:50;;;;;;;1.47;0.90;;;20.80;76.60;;;;;;5000847;28;20664;-77
2022/06/01 08:50:22;;;;;;;1.47;0.80;;;20.80;76.40;;;;;;5027891;28;21246;-77
2022/06/01 08:52:49;;;;;;;1.50;0.90;;;21.00;76.50;;;;;;5025312;28;20765;-77
2022/06/01 08:55:18;;;;;;;1.47;0.90;;;21.20;75.80;;;;;;5028431;28;20510;-77
2022/06/01 08:57:50;;;;;;;1.40;0.80;;;21.50;76.30;;;;;;5024718;28;20470;-79
2022/06/01 09:00:19;;;;;;;1.47;0.90;;;21.50;74.80;;;;;;5028691;28;20502;-77
2022/06/01 09:02:56;;;;;;;1.43;0.83;;;21.40;74.20;;;;;;5030470;28;20458;-78
2022/06/01 09:05:32;;;;;;;1.43;0.90;;;21.20;75.30;;;;;;5024766;28;20486;-78
2022/06/01 09:08:07;;;;;;;1.43;0.90;;;21.20;75.90;;;;;;4999500;28;20483;-77
2022/06/01 09:10:45;;;;;;;1.43;0.90;;;21.00;75.60;;;;;;5026452;28;20578;-80
2022/06/01 09:13:14;;;;;;;1.50;0.90;;;20.80;75.30;;;;;;5033504;28;20478;-77
2022/06/01 09:15:48;;;;;;;1.40;0.90;;;20.60;76.30;;;;;;5033176;28;20554;-76
2022/06/01 09:18:19;;;;;;;1.47;0.90;;;20.40;76.50;;;;;;5031866;28;20478;-79
2022/06/01 09:23:31;;;;;;;1.50;0.90;;;20.60;77.30;;;;;;5030813;28;20457;-80
2022/06/01 09:26:00;;;;;;;1.50;0.90;;;21.00;77.30;;;;;;5032152;28;20553;-80
2022/06/01 09:28:28;;;;;;;1.47;0.90;;;21.20;75.60;;;;;;5030259;28;20459;-80
2022/06/01 09:30:58;;;;;;;1.47;0.90;;;21.20;75.70;;;;;;5030095;28;20558;-79
2022/06/01 09:33:28;;;;;;;1.50;0.87;;;21.20;74.10;;;;;;5029520;28;20866;-75
2022/06/01 09:36:17;;;;;;;1.50;0.90;;;21.30;73.80;;;;;;5030602;28;20495;-76
2022/06/01 09:38:52;;;;;;;1.50;0.90;;;21.60;74.80;;;;;;5027402;28;20455;-78
2022/06/01 09:41:26;;;;;;;1.40;0.80;;;21.80;73.00;;;;;;5016050;28;20466;-79
2022/06/01 09:43:58;;;;;;;1.47;0.80;;;21.90;73.20;;;;;;5032075;28;20471;-79
2022/06/01 09:46:33;;;;;;;1.47;0.90;;;21.70;73.60;;;;;;5028526;28;20889;-77
2022/06/01 09:49:01;;;;;;;1.50;0.90;;;21.50;72.90;;;;;;5030499;28;20989;-77
2022/06/01 09:51:28;;;;;;;1.43;0.90;;;21.50;72.20;;;;;;5011387;28;21014;-77
2022/06/01 09:54:10;;;;;;;1.43;0.90;;;21.60;72.20;;;;;;5019449;28;20491;-76
2022/06/01 09:56:45;;;;;;;1.47;0.90;;;21.70;72.10;;;;;;5030711;28;20568;-77
2022/06/01 10:07:44;;;;;;;1.50;0.90;;;21.60;71.70;;;;;;4985629;28;20460;-77
2022/06/01 10:10:23;;;;;;;1.47;0.90;;;22.00;70.80;;;;;;5022515;28;20475;-77
2022/06/01 10:12:54;;;;;;;1.47;0.80;;;22.20;69.00;;;;;;5027010;28;20509;-78
2022/06/01 10:15:28;;;;;;;1.43;0.80;;;22.10;69.20;;;;;;5029464;28;20479;-78
2022/06/01 10:18:00;;;;;;;1.47;0.90;;;21.90;70.50;;;;;;5029607;28;20459;-78
2022/06/01 10:20:30;;;;;;;1.43;0.83;;;21.80;72.20;;;;;;5028225;28;20463;-78
2022/06/01 10:23:03;;;;;;;1.43;0.90;;;22.10;71.90;;;;;;5029007;28;20459;-77
2022/06/01 10:25:38;;;;;;;1.47;0.90;;;22.40;70.40;;;;;;5022312;28;20487;-78
2022/06/01 10:28:11;;;;;;;1.43;0.87;;;22.60;68.50;;;;;;4998764;28;20487;-77
2022/06/01 10:30:40;;;;;;;1.47;0.80;;;22.90;68.50;;;;;;5029193;28;20474;-77
2022/06/01 10:33:14;;;;;;;1.43;0.90;;;23.00;67.90;;;;;;5026753;28;20475;-77
2022/06/01 10:35:46;;;;;;;1.47;0.90;;;23.10;67.90;;;;;;5029772;28;20547;-77
2022/06/01 10:38:18;;;;;;;1.43;0.80;;;23.10;67.10;;;;;;5029306;28;20968;-77
2022/06/01 10:40:53;;;;;;;1.50;0.80;;;23.10;68.60;;;;;;5028633;28;20466;-78
2022/06/01 10:43:35;;;;;;;1.50;0.80;;;23.20;67.80;;;;;;5001828;28;20482;-76
2022/06/01 10:46:10;;;;;;;1.50;0.90;;;23.20;65.30;;;;;;5023281;28;20483;-77
2022/06/01 10:48:52;;;;;;;1.50;0.80;;;23.50;65.90;;;;;;5029561;28;20849;-77
2022/06/01 10:51:23;;;;;;;1.50;1.10;;;23.80;68.40;;;;;;5011741;28;20476;-77
2022/06/01 10:53:58;;;;;;;1.50;0.80;;;24.10;64.90;;;;;;5026061;28;20859;-77
2022/06/01 10:56:25;;;;;;;1.50;0.90;;;24.10;64.40;;;;;;5024082;28;20483;-76
2022/06/01 10:58:58;;;;;;;1.47;0.80;;;24.30;63.80;;;;;;5023928;28;20459;-77
2022/06/01 11:01:40;;;;;;;1.47;0.80;;;24.40;63.10;;;;;;5006514;28;20503;-76
2022/06/01 11:04:26;;;;;;;1.47;0.80;;;24.40;64.30;;;;;;5001790;28;20464;-76
2022/06/01 11:07:18;;;;;;;1.47;0.80;;;24.50;64.40;;;;;;5007900;28;20671;-77
2022/06/01 11:09:55;;;;;;;1.50;0.90;;;24.70;62.50;;;;;;5004819;28;20881;-77
2022/06/01 11:12:34;;;;;;;1.50;0.80;;;24.80;61.60;;;;;;5003481;28;20825;-77
2022/06/01 11:15:16;;;;;;;1.50;0.87;;;25.00;61.80;;;;;;5001984;28;20488;-76
2022/06/01 11:17:46;;;;;;;1.50;0.80;;;25.00;62.70;;;;;;4998466;28;20479;-77
2022/06/01 11:20:37;;;;;;;1.43;0.83;;;25.20;63.70;;;;;;5004888;28;20463;-77
2022/06/01 11:23:18;;;;;;;1.50;0.80;;;25.10;60.70;;;;;;5001092;28;20464;-77
2022/06/01 11:25:53;;;;;;;1.40;0.80;;;25.00;60.70;;;;;;4989631;28;20495;-76
2022/06/01 11:28:31;;;;;;;1.47;0.90;;;25.20;60.80;;;;;;4998862;28;20471;-77
2022/06/01 11:31:09;;;;;;;1.40;0.80;;;25.50;61.10;;;;;;4995730;28;20460;-77
2022/06/01 11:33:40;;;;;;;1.47;0.80;;;25.50;58.90;;;;;;4995909;28;20466;-77
2022/06/01 11:36:18;;;;;;;1.50;0.80;;;25.30;59.90;;;;;;4996067;28;20903;-77
2022/06/01 11:38:50;;;;;;;1.50;0.80;;;25.40;61.40;;;;;;5000766;28;20952;-77
2022/06/01 11:41:21;;;;;;;1.47;0.80;;;25.60;61.70;;;;;;5002501;28;20468;-77
2022/06/01 11:43:53;;;;;;;1.47;0.90;;;25.80;60.30;;;;;;5006032;28;20464;-77
2022/06/01 11:46:25;;;;;;;1.43;0.80;;;25.80;60.10;;;;;;5001808;28;20480;-78
2022/06/01 11:48:56;;;;;;;1.43;0.80;;;25.60;58.80;;;;;;5006524;28;20829;-77
2022/06/01 11:51:44;;;;;;;1.47;0.80;;;25.70;59.00;;;;;;4999158;28;20459;-77
2022/06/01 11:54:16;;;;;;;1.47;0.80;;;25.70;59.50;;;;;;5004140;28;20496;-77
2022/06/01 11:56:45;;;;;;;1.47;0.80;;;25.60;59.30;;;;;;4990375;28;20487;-77
2022/06/01 11:59:22;;;;;;;1.47;0.80;;;25.50;61.50;;;;;;4994598;28;20630;-77
2022/06/01 12:02:02;;;;;;;1.40;0.90;;;25.40;61.20;;;;;;5002072;28;20466;-78
2022/06/01 12:04:33;;;;;;;1.40;0.80;;;25.10;60.90;;;;;;4995218;28;20464;-77
2022/06/01 12:07:06;;;;;;;1.47;0.90;;;24.90;61.50;;;;;;5001832;28;20456;-77
2022/06/01 12:09:41;;;;;;;1.47;0.80;;;24.70;61.30;;;;;;5005562;28;20543;-77
2022/06/01 12:12:22;;;;;;;1.50;0.90;;;24.70;62.50;;;;;;4984592;28;20570;-77
2022/06/01 12:14:58;;;;;;;1.50;0.80;;;24.80;63.00;;;;;;4997921;28;20498;-77
2022/06/01 12:17:32;;;;;;;1.47;0.90;;;24.90;61.50;;;;;;5004775;28;20490;-77
2022/06/01 12:20:47;;;;;;;1.47;0.80;;;25.10;61.40;;;;;;5006904;28;20471;-77
2022/06/01 12:29:56;;;;;;;1.47;0.80;;;26.20;58.80;;;;;;5000120;28;21137;-77
2022/06/01 12:32:23;;;;;;;1.43;0.80;;;26.50;57.20;;;;;;5000948;28;20475;-77
2022/06/01 12:35:07;;;;;;;1.50;0.90;;;26.50;56.70;;;;;;4999533;28;20867;-77
2022/06/01 12:37:39;;;;;;;1.47;0.80;;;26.60;56.90;;;;;;4997713;28;20874;-77
2022/06/01 12:40:13;;;;;;;1.47;0.90;;;26.60;57.40;;;;;;4998723;28;20476;-76
2022/06/01 12:42:44;;;;;;;1.43;0.80;;;26.40;58.40;;;;;;5004538;28;20470;-77
2022/06/01 12:45:14;;;;;;;1.43;0.80;;;26.10;59.60;;;;;;5005911;28;20966;-76
2022/06/01 12:47:49;;;;;;;1.43;0.80;;;26.10;58.90;;;;;;5001444;28;20537;-77
2022/06/01 12:50:20;;;;;;;1.43;0.90;;;25.90;58.10;;;;;;5004734;28;20463;-77
2022/06/01 12:52:47;;;;;;;1.47;0.80;;;25.60;58.40;;;;;;5003619;28;20460;-77
2022/06/01 12:55:19;;;;;;;1.47;0.80;;;25.00;60.40;;;;;;5006279;28;20502;-77
2022/06/01 12:57:51;;;;;;;1.50;0.90;;;24.70;62.30;;;;;;5006115;28;20522;-76
2022/06/01 13:00:22;;;;;;;1.43;0.90;;;24.70;63.40;;;;;;5006016;28;20463;-76
2022/06/01 13:02:49;;;;;;;1.40;0.80;;;24.50;60.70;;;;;;5002008;28;20747;-75
2022/06/01 13:05:23;;;;;;;1.50;0.80;;;24.20;60.40;;;;;;5003179;28;20482;-77
2022/06/01 13:07:53;;;;;;;1.50;0.83;;;24.00;60.30;;;;;;4994422;28;20695;-77
2022/06/01 13:10:24;;;;;;;1.47;0.83;;;23.80;61.80;;;;;;5002653;28;20995;-78
2022/06/01 13:13:00;;;;;;;1.50;0.80;;;24.00;62.00;;;;;;4986778;28;20889;-77
2022/06/01 13:15:28;;;;;;;1.43;0.80;;;24.30;64.80;;;;;;5003954;28;20491;-78
2022/06/01 13:17:57;;;;;;;1.43;0.87;;;24.60;63.70;;;;;;5004521;28;20484;-78
2022/06/01 13:20:35;;;;;;;1.50;1.20;;;24.70;65.40;;;;;;4996811;28;20849;-78
2022/06/01 13:23:03;;;;;;;1.40;0.87;;;24.30;66.10;;;;;;5004052;28;21100;-76
2022/06/01 13:25:34;;;;;;;1.40;0.80;;;24.10;67.80;;;;;;5005913;28;20476;-76
2022/06/01 13:28:01;;;;;;;1.50;0.90;;;23.70;67.90;;;;;;4993657;28;20479;-76
2022/06/01 13:30:30;;;;;;;1.70;1.43;;;23.70;69.10;;;;;;5003260;28;20464;-76
2022/06/01 13:32:58;;;;;;;1.40;0.80;;;23.80;67.50;;;;;;5003601;28;20915;-76
2022/06/01 13:35:36;;;;;;;1.47;0.90;;;24.00;68.70;;;;;;5006483;28;21439;-76